sensor_id;sensor_type;location;lat;lon;timestamp;P1;durP1;ratioP1;P2;durP2;ratioP2
18286;SDS011;9269;50.838;12.094;2022-08-19T00:01:54;19.33;;;17.53;;
18286;SDS011;9269;50.838;12.094;2022-08-19T00:04:29;19.67;;;17.80;;
18286;SDS011;9269;50.838;12.094;2022-08-19T00:06:59;20.20;;;18.30;;
18286;SDS011;9269;50.838;12.094;2022-08-19T00:09:28;19.80;;;18.00;;
18286;SDS011;9269;50.838;12.094;2022-08-19T00:11:57;18.57;;;16.77;;
18286;SDS011;9269;50.838;12.094;2022-08-19T00:14:26;21.77;;;19.77;;
18286;SDS011;9269;50.838;12.094;2022-08-19T00:16:59;20.20;;;18.50;;
18286;SDS011;9269;50.838;12.094;2022-08-19T00:19:31;18.80;;;17.10;;
18286;SDS011;9269;50.838;12.094;2022-08-19T00:22:00;19.80;;;18.00;;
18286;SDS011;9269;50.838;12.094;2022-08-19T00:24:30;19.13;;;17.40;;
18286;SDS011;9269;50.838;12.094;2022-08-19T00:26:59;20.10;;;18.10;;
18286;SDS011;9269;50.838;12.094;2022-08-19T00:29:48;21.13;;;19.13;;
18286;SDS011;9269;50.838;12.094;2022-08-19T00:32:18;19.07;;;17.30;;
18286;SDS011;9269;50.838;12.094;2022-08-19T00:34:48;18.77;;;17.13;;
18286;SDS011;9269;50.838;12.094;2022-08-19T00:37:19;18.13;;;16.53;;
18286;SDS011;9269;50.838;12.094;2022-08-19T00:39:49;19.73;;;17.83;;
18286;SDS011;9269;50.838;12.094;2022-08-19T00:42:19;17.50;;;15.90;;
18286;SDS011;9269;50.838;12.094;2022-08-19T00:44:48;18.80;;;17.13;;
18286;SDS011;9269;50.838;12.094;2022-08-19T00:47:18;18.57;;;16.87;;
18286;SDS011;9269;50.838;12.094;2022-08-19T00:49:48;20.13;;;18.30;;
18286;SDS011;9269;50.838;12.094;2022-08-19T00:52:21;17.77;;;16.17;;
18286;SDS011;9269;50.838;12.094;2022-08-19T00:54:54;20.03;;;18.23;;
18286;SDS011;9269;50.838;12.094;2022-08-19T00:57:25;18.97;;;17.27;;
18286;SDS011;9269;50.838;12.094;2022-08-19T00:59:58;18.10;;;16.50;;
18286;SDS011;9269;50.838;12.094;2022-08-19T01:02:29;19.23;;;17.43;;
18286;SDS011;9269;50.838;12.094;2022-08-19T01:05:00;19.30;;;17.60;;
18286;SDS011;9269;50.838;12.094;2022-08-19T01:07:32;20.53;;;18.53;;
18286;SDS011;9269;50.838;12.094;2022-08-19T01:10:04;19.63;;;17.63;;
18286;SDS011;9269;50.838;12.094;2022-08-19T01:12:35;19.67;;;17.87;;
18286;SDS011;9269;50.838;12.094;2022-08-19T01:15:04;17.97;;;16.37;;
18286;SDS011;9269;50.838;12.094;2022-08-19T01:17:34;19.93;;;17.93;;
18286;SDS011;9269;50.838;12.094;2022-08-19T01:20:07;19.87;;;18.10;;
18286;SDS011;9269;50.838;12.094;2022-08-19T01:22:40;19.13;;;17.43;;
18286;SDS011;9269;50.838;12.094;2022-08-19T01:25:12;19.17;;;17.37;;
18286;SDS011;9269;50.838;12.094;2022-08-19T01:27:41;18.43;;;16.83;;
18286;SDS011;9269;50.838;12.094;2022-08-19T01:30:12;21.13;;;19.13;;
18286;SDS011;9269;50.838;12.094;2022-08-19T01:32:43;21.20;;;19.23;;
18286;SDS011;9269;50.838;12.094;2022-08-19T01:35:12;19.33;;;17.57;;
18286;SDS011;9269;50.838;12.094;2022-08-19T01:37:47;20.57;;;18.73;;
18286;SDS011;9269;50.838;12.094;2022-08-19T01:40:19;21.70;;;19.80;;
18286;SDS011;9269;50.838;12.094;2022-08-19T01:42:49;21.77;;;19.77;;
18286;SDS011;9269;50.838;12.094;2022-08-19T01:45:19;22.10;;;20.10;;
18286;SDS011;9269;50.838;12.094;2022-08-19T01:47:49;21.60;;;19.70;;
18286;SDS011;9269;50.838;12.094;2022-08-19T01:50:28;22.73;;;20.63;;
18286;SDS011;9269;50.838;12.094;2022-08-19T01:52:58;20.17;;;18.33;;
18286;SDS011;9269;50.838;12.094;2022-08-19T01:55:33;23.43;;;21.23;;
18286;SDS011;9269;50.838;12.094;2022-08-19T01:58:08;22.90;;;20.70;;
18286;SDS011;9269;50.838;12.094;2022-08-19T02:00:41;21.77;;;19.83;;
18286;SDS011;9269;50.838;12.094;2022-08-19T02:03:10;22.37;;;20.27;;
18286;SDS011;9269;50.838;12.094;2022-08-19T02:05:39;23.97;;;21.67;;
18286;SDS011;9269;50.838;12.094;2022-08-19T02:08:10;24.50;;;22.17;;
18286;SDS011;9269;50.838;12.094;2022-08-19T02:10:39;24.80;;;22.50;;
18286;SDS011;9269;50.838;12.094;2022-08-19T02:13:09;22.33;;;20.23;;
18286;SDS011;9269;50.838;12.094;2022-08-19T02:15:38;24.13;;;21.83;;
18286;SDS011;9269;50.838;12.094;2022-08-19T02:18:07;23.90;;;21.73;;
18286;SDS011;9269;50.838;12.094;2022-08-19T02:20:36;25.37;;;23.07;;
18286;SDS011;9269;50.838;12.094;2022-08-19T02:23:05;23.43;;;21.27;;
18286;SDS011;9269;50.838;12.094;2022-08-19T02:25:43;25.50;;;23.30;;
18286;SDS011;9269;50.838;12.094;2022-08-19T02:28:13;25.00;;;22.80;;
18286;SDS011;9269;50.838;12.094;2022-08-19T02:30:45;24.00;;;21.90;;
18286;SDS011;9269;50.838;12.094;2022-08-19T02:33:14;25.67;;;23.40;;
18286;SDS011;9269;50.838;12.094;2022-08-19T02:35:43;26.43;;;23.93;;
18286;SDS011;9269;50.838;12.094;2022-08-19T02:38:13;24.83;;;22.43;;
18286;SDS011;9269;50.838;12.094;2022-08-19T02:40:56;24.30;;;22.10;;
18286;SDS011;9269;50.838;12.094;2022-08-19T02:43:26;26.03;;;23.60;;
18286;SDS011;9269;50.838;12.094;2022-08-19T02:46:00;26.30;;;23.90;;
18286;SDS011;9269;50.838;12.094;2022-08-19T02:48:29;26.40;;;23.70;;
18286;SDS011;9269;50.838;12.094;2022-08-19T02:50:59;23.10;;;20.93;;
18286;SDS011;9269;50.838;12.094;2022-08-19T02:53:28;25.23;;;23.10;;
18286;SDS011;9269;50.838;12.094;2022-08-19T02:55:58;23.63;;;21.37;;
18286;SDS011;9269;50.838;12.094;2022-08-19T02:58:26;23.37;;;21.17;;
18286;SDS011;9269;50.838;12.094;2022-08-19T03:00:55;24.43;;;22.07;;
18286;SDS011;9269;50.838;12.094;2022-08-19T03:03:24;22.33;;;20.13;;
18286;SDS011;9269;50.838;12.094;2022-08-19T03:06:03;24.77;;;22.43;;
18286;SDS011;9269;50.838;12.094;2022-08-19T03:08:32;25.60;;;23.00;;
18286;SDS011;9269;50.838;12.094;2022-08-19T03:11:02;26.00;;;23.50;;
18286;SDS011;9269;50.838;12.094;2022-08-19T03:13:31;25.20;;;22.90;;
18286;SDS011;9269;50.838;12.094;2022-08-19T03:16:00;24.57;;;22.27;;
18286;SDS011;9269;50.838;12.094;2022-08-19T03:18:32;23.53;;;21.43;;
18286;SDS011;9269;50.838;12.094;2022-08-19T03:21:01;24.93;;;22.53;;
18286;SDS011;9269;50.838;12.094;2022-08-19T03:23:29;23.10;;;20.90;;
18286;SDS011;9269;50.838;12.094;2022-08-19T03:25:57;22.03;;;20.00;;
18286;SDS011;9269;50.838;12.094;2022-08-19T03:28:44;21.90;;;19.90;;
18286;SDS011;9269;50.838;12.094;2022-08-19T03:31:24;21.30;;;19.33;;
18286;SDS011;9269;50.838;12.094;2022-08-19T03:34:15;25.50;;;23.23;;
18286;SDS011;9269;50.838;12.094;2022-08-19T03:36:45;21.50;;;19.50;;
18286;SDS011;9269;50.838;12.094;2022-08-19T03:39:14;23.07;;;20.93;;
18286;SDS011;9269;50.838;12.094;2022-08-19T03:41:44;30.53;;;27.67;;
18286;SDS011;9269;50.838;12.094;2022-08-19T03:44:16;25.77;;;23.37;;
18286;SDS011;9269;50.838;12.094;2022-08-19T03:46:47;25.63;;;23.27;;
18286;SDS011;9269;50.838;12.094;2022-08-19T03:49:18;27.37;;;24.60;;
18286;SDS011;9269;50.838;12.094;2022-08-19T03:51:54;27.20;;;24.60;;
18286;SDS011;9269;50.838;12.094;2022-08-19T03:54:24;26.20;;;23.80;;
18286;SDS011;9269;50.838;12.094;2022-08-19T03:56:53;26.77;;;24.33;;
18286;SDS011;9269;50.838;12.094;2022-08-19T03:59:25;26.90;;;24.40;;
18286;SDS011;9269;50.838;12.094;2022-08-19T04:01:56;25.50;;;23.30;;
18286;SDS011;9269;50.838;12.094;2022-08-19T04:04:27;27.80;;;25.23;;
18286;SDS011;9269;50.838;12.094;2022-08-19T04:06:57;24.20;;;22.00;;
18286;SDS011;9269;50.838;12.094;2022-08-19T04:09:25;25.73;;;23.27;;
18286;SDS011;9269;50.838;12.094;2022-08-19T04:11:56;27.10;;;24.70;;
18286;SDS011;9269;50.838;12.094;2022-08-19T04:14:27;25.83;;;23.20;;
18286;SDS011;9269;50.838;12.094;2022-08-19T04:16:58;28.00;;;25.40;;
18286;SDS011;9269;50.838;12.094;2022-08-19T04:19:28;26.33;;;23.77;;
18286;SDS011;9269;50.838;12.094;2022-08-19T04:21:57;26.17;;;23.70;;
18286;SDS011;9269;50.838;12.094;2022-08-19T04:24:26;25.93;;;23.43;;
18286;SDS011;9269;50.838;12.094;2022-08-19T04:26:54;26.10;;;23.70;;
18286;SDS011;9269;50.838;12.094;2022-08-19T04:29:23;26.63;;;24.20;;
18286;SDS011;9269;50.838;12.094;2022-08-19T04:31:55;24.90;;;22.67;;
18286;SDS011;9269;50.838;12.094;2022-08-19T04:34:36;29.13;;;26.23;;
18286;SDS011;9269;50.838;12.094;2022-08-19T04:37:25;30.63;;;27.80;;
18286;SDS011;9269;50.838;12.094;2022-08-19T04:40:02;27.37;;;24.80;;
18286;SDS011;9269;50.838;12.094;2022-08-19T04:42:51;30.20;;;27.30;;
18286;SDS011;9269;50.838;12.094;2022-08-19T04:45:20;28.30;;;25.70;;
18286;SDS011;9269;50.838;12.094;2022-08-19T04:47:54;25.60;;;23.20;;
18286;SDS011;9269;50.838;12.094;2022-08-19T04:50:44;26.83;;;24.37;;
18286;SDS011;9269;50.838;12.094;2022-08-19T04:53:12;28.97;;;26.20;;
18286;SDS011;9269;50.838;12.094;2022-08-19T04:55:40;26.40;;;23.90;;
18286;SDS011;9269;50.838;12.094;2022-08-19T04:58:09;23.53;;;21.43;;
18286;SDS011;9269;50.838;12.094;2022-08-19T05:00:38;25.80;;;23.30;;
18286;SDS011;9269;50.838;12.094;2022-08-19T05:03:08;23.83;;;21.63;;
18286;SDS011;9269;50.838;12.094;2022-08-19T05:05:38;25.07;;;22.77;;
18286;SDS011;9269;50.838;12.094;2022-08-19T05:08:11;26.20;;;23.80;;
18286;SDS011;9269;50.838;12.094;2022-08-19T05:10:41;26.20;;;23.70;;
18286;SDS011;9269;50.838;12.094;2022-08-19T05:13:09;28.43;;;25.63;;
18286;SDS011;9269;50.838;12.094;2022-08-19T05:15:37;28.20;;;25.37;;
18286;SDS011;9269;50.838;12.094;2022-08-19T05:18:06;33.30;;;30.10;;
18286;SDS011;9269;50.838;12.094;2022-08-19T05:20:53;29.10;;;26.40;;
18286;SDS011;9269;50.838;12.094;2022-08-19T05:23:39;28.17;;;25.57;;
18286;SDS011;9269;50.838;12.094;2022-08-19T05:26:08;30.50;;;27.63;;
18286;SDS011;9269;50.838;12.094;2022-08-19T05:28:37;30.80;;;27.83;;
18286;SDS011;9269;50.838;12.094;2022-08-19T05:31:06;31.83;;;28.83;;
18286;SDS011;9269;50.838;12.094;2022-08-19T05:33:34;30.80;;;27.70;;
18286;SDS011;9269;50.838;12.094;2022-08-19T05:36:04;33.30;;;29.97;;
18286;SDS011;9269;50.838;12.094;2022-08-19T05:38:34;30.40;;;27.40;;
18286;SDS011;9269;50.838;12.094;2022-08-19T05:41:05;30.17;;;27.47;;
18286;SDS011;9269;50.838;12.094;2022-08-19T05:43:35;30.77;;;27.87;;
18286;SDS011;9269;50.838;12.094;2022-08-19T05:46:04;32.33;;;29.37;;
18286;SDS011;9269;50.838;12.094;2022-08-19T05:48:32;33.83;;;30.53;;
18286;SDS011;9269;50.838;12.094;2022-08-19T05:51:05;34.87;;;31.37;;
18286;SDS011;9269;50.838;12.094;2022-08-19T05:53:35;29.57;;;26.67;;
18286;SDS011;9269;50.838;12.094;2022-08-19T05:56:04;35.30;;;31.60;;
18286;SDS011;9269;50.838;12.094;2022-08-19T05:58:32;30.23;;;27.47;;
18286;SDS011;9269;50.838;12.094;2022-08-19T06:01:00;28.43;;;25.80;;
18286;SDS011;9269;50.838;12.094;2022-08-19T06:03:32;29.17;;;26.47;;
18286;SDS011;9269;50.838;12.094;2022-08-19T06:06:01;28.73;;;25.93;;
18286;SDS011;9269;50.838;12.094;2022-08-19T06:08:30;31.97;;;28.70;;
18286;SDS011;9269;50.838;12.094;2022-08-19T06:11:14;30.70;;;27.70;;
18286;SDS011;9269;50.838;12.094;2022-08-19T06:13:43;38.73;;;34.83;;
18286;SDS011;9269;50.838;12.094;2022-08-19T06:16:16;30.53;;;27.53;;
18286;SDS011;9269;50.838;12.094;2022-08-19T06:18:49;30.83;;;27.93;;
18286;SDS011;9269;50.838;12.094;2022-08-19T06:21:19;33.23;;;29.87;;
18286;SDS011;9269;50.838;12.094;2022-08-19T06:23:50;32.13;;;28.87;;
18286;SDS011;9269;50.838;12.094;2022-08-19T06:26:19;35.90;;;32.03;;
18286;SDS011;9269;50.838;12.094;2022-08-19T06:28:49;32.83;;;29.53;;
18286;SDS011;9269;50.838;12.094;2022-08-19T06:31:18;31.97;;;28.70;;
18286;SDS011;9269;50.838;12.094;2022-08-19T06:33:48;31.47;;;28.47;;
18286;SDS011;9269;50.838;12.094;2022-08-19T06:36:18;34.93;;;31.30;;
18286;SDS011;9269;50.838;12.094;2022-08-19T06:38:52;34.17;;;30.50;;
18286;SDS011;9269;50.838;12.094;2022-08-19T06:41:21;32.10;;;28.97;;
18286;SDS011;9269;50.838;12.094;2022-08-19T06:43:49;32.70;;;29.50;;
18286;SDS011;9269;50.838;12.094;2022-08-19T06:46:19;30.13;;;27.30;;
18286;SDS011;9269;50.838;12.094;2022-08-19T06:48:49;32.43;;;29.23;;
18286;SDS011;9269;50.838;12.094;2022-08-19T06:51:20;33.50;;;30.20;;
18286;SDS011;9269;50.838;12.094;2022-08-19T06:53:51;33.27;;;29.87;;
18286;SDS011;9269;50.838;12.094;2022-08-19T06:56:23;35.07;;;31.57;;
18286;SDS011;9269;50.838;12.094;2022-08-19T06:58:57;34.53;;;31.03;;
18286;SDS011;9269;50.838;12.094;2022-08-19T07:01:26;34.40;;;31.03;;
18286;SDS011;9269;50.838;12.094;2022-08-19T07:03:55;32.80;;;29.47;;
18286;SDS011;9269;50.838;12.094;2022-08-19T07:06:24;35.37;;;31.50;;
18286;SDS011;9269;50.838;12.094;2022-08-19T07:09:12;38.20;;;34.10;;
18286;SDS011;9269;50.838;12.094;2022-08-19T07:11:45;34.97;;;31.47;;
18286;SDS011;9269;50.838;12.094;2022-08-19T07:14:15;32.30;;;29.07;;
18286;SDS011;9269;50.838;12.094;2022-08-19T07:16:46;35.07;;;31.47;;
18286;SDS011;9269;50.838;12.094;2022-08-19T07:19:17;37.87;;;33.90;;
18286;SDS011;9269;50.838;12.094;2022-08-19T07:21:46;34.80;;;31.27;;
18286;SDS011;9269;50.838;12.094;2022-08-19T07:24:17;35.27;;;31.77;;
18286;SDS011;9269;50.838;12.094;2022-08-19T07:26:46;35.93;;;32.13;;
18286;SDS011;9269;50.838;12.094;2022-08-19T07:29:18;34.07;;;30.73;;
18286;SDS011;9269;50.838;12.094;2022-08-19T07:31:54;33.97;;;30.50;;
18286;SDS011;9269;50.838;12.094;2022-08-19T07:34:26;34.87;;;30.60;;
18286;SDS011;9269;50.838;12.094;2022-08-19T07:36:55;34.53;;;30.97;;
18286;SDS011;9269;50.838;12.094;2022-08-19T07:39:26;34.23;;;30.83;;
18286;SDS011;9269;50.838;12.094;2022-08-19T07:41:57;33.13;;;29.73;;
18286;SDS011;9269;50.838;12.094;2022-08-19T07:44:27;33.90;;;30.40;;
18286;SDS011;9269;50.838;12.094;2022-08-19T07:46:56;33.23;;;29.90;;
18286;SDS011;9269;50.838;12.094;2022-08-19T07:49:26;30.53;;;27.47;;
18286;SDS011;9269;50.838;12.094;2022-08-19T07:51:56;35.60;;;31.83;;
18286;SDS011;9269;50.838;12.094;2022-08-19T07:54:28;33.27;;;29.97;;
18286;SDS011;9269;50.838;12.094;2022-08-19T07:57:01;35.00;;;31.50;;
18286;SDS011;9269;50.838;12.094;2022-08-19T07:59:30;31.33;;;28.13;;
18286;SDS011;9269;50.838;12.094;2022-08-19T08:02:00;29.73;;;26.63;;
18286;SDS011;9269;50.838;12.094;2022-08-19T08:04:29;31.90;;;28.60;;
18286;SDS011;9269;50.838;12.094;2022-08-19T08:07:17;32.03;;;28.77;;
18286;SDS011;9269;50.838;12.094;2022-08-19T08:10:05;30.17;;;27.17;;
18286;SDS011;9269;50.838;12.094;2022-08-19T08:12:47;30.87;;;27.97;;
18286;SDS011;9269;50.838;12.094;2022-08-19T08:15:35;30.10;;;27.03;;
18286;SDS011;9269;50.838;12.094;2022-08-19T08:18:09;30.03;;;27.03;;
18286;SDS011;9269;50.838;12.094;2022-08-19T08:20:40;30.17;;;27.17;;
18286;SDS011;9269;50.838;12.094;2022-08-19T08:23:08;28.67;;;25.97;;
18286;SDS011;9269;50.838;12.094;2022-08-19T08:25:55;31.13;;;27.87;;
18286;SDS011;9269;50.838;12.094;2022-08-19T08:28:25;29.47;;;26.67;;
18286;SDS011;9269;50.838;12.094;2022-08-19T08:30:55;28.50;;;25.80;;
18286;SDS011;9269;50.838;12.094;2022-08-19T08:33:26;29.73;;;26.83;;
18286;SDS011;9269;50.838;12.094;2022-08-19T08:36:00;33.10;;;29.87;;
18286;SDS011;9269;50.838;12.094;2022-08-19T08:38:30;29.47;;;26.60;;
18286;SDS011;9269;50.838;12.094;2022-08-19T08:41:09;29.77;;;26.87;;
18286;SDS011;9269;50.838;12.094;2022-08-19T08:43:47;30.43;;;27.43;;
18286;SDS011;9269;50.838;12.094;2022-08-19T08:46:19;29.50;;;26.50;;
18286;SDS011;9269;50.838;12.094;2022-08-19T08:49:01;30.93;;;27.93;;
18286;SDS011;9269;50.838;12.094;2022-08-19T08:51:37;28.90;;;26.20;;
18286;SDS011;9269;50.838;12.094;2022-08-19T08:54:14;29.47;;;26.57;;
18286;SDS011;9269;50.838;12.094;2022-08-19T08:56:47;32.83;;;29.63;;
18286;SDS011;9269;50.838;12.094;2022-08-19T08:59:20;30.63;;;27.73;;
18286;SDS011;9269;50.838;12.094;2022-08-19T09:01:51;28.60;;;25.77;;
18286;SDS011;9269;50.838;12.094;2022-08-19T09:04:20;29.43;;;26.57;;
18286;SDS011;9269;50.838;12.094;2022-08-19T09:06:51;30.70;;;27.70;;
18286;SDS011;9269;50.838;12.094;2022-08-19T09:09:26;30.13;;;27.13;;
18286;SDS011;9269;50.838;12.094;2022-08-19T09:12:05;29.20;;;26.30;;
18286;SDS011;9269;50.838;12.094;2022-08-19T09:14:53;29.23;;;26.40;;
18286;SDS011;9269;50.838;12.094;2022-08-19T09:17:27;30.63;;;27.90;;
18286;SDS011;9269;50.838;12.094;2022-08-19T09:20:00;30.53;;;27.53;;
18286;SDS011;9269;50.838;12.094;2022-08-19T09:22:35;31.80;;;28.70;;
18286;SDS011;9269;50.838;12.094;2022-08-19T09:25:06;32.70;;;29.47;;
18286;SDS011;9269;50.838;12.094;2022-08-19T09:27:38;31.93;;;28.77;;
18286;SDS011;9269;50.838;12.094;2022-08-19T09:30:11;29.57;;;26.70;;
18286;SDS011;9269;50.838;12.094;2022-08-19T09:32:42;33.33;;;29.87;;
18286;SDS011;9269;50.838;12.094;2022-08-19T09:35:12;32.83;;;29.57;;
18286;SDS011;9269;50.838;12.094;2022-08-19T09:37:42;31.23;;;28.23;;
18286;SDS011;9269;50.838;12.094;2022-08-19T09:40:11;30.27;;;27.40;;
18286;SDS011;9269;50.838;12.094;2022-08-19T09:42:43;32.00;;;28.80;;
18286;SDS011;9269;50.838;12.094;2022-08-19T09:45:17;34.40;;;31.00;;
18286;SDS011;9269;50.838;12.094;2022-08-19T09:47:49;33.83;;;30.53;;
18286;SDS011;9269;50.838;12.094;2022-08-19T09:50:20;32.40;;;29.13;;
18286;SDS011;9269;50.838;12.094;2022-08-19T09:52:51;30.43;;;27.43;;
18286;SDS011;9269;50.838;12.094;2022-08-19T09:55:24;30.33;;;27.40;;
18286;SDS011;9269;50.838;12.094;2022-08-19T09:58:00;28.33;;;25.67;;
18286;SDS011;9269;50.838;12.094;2022-08-19T10:00:29;29.73;;;26.93;;
18286;SDS011;9269;50.838;12.094;2022-08-19T10:02:58;30.03;;;27.17;;
18286;SDS011;9269;50.838;12.094;2022-08-19T10:05:29;26.90;;;24.40;;
18286;SDS011;9269;50.838;12.094;2022-08-19T10:08:17;26.93;;;24.47;;
18286;SDS011;9269;50.838;12.094;2022-08-19T10:10:52;25.37;;;22.97;;
18286;SDS011;9269;50.838;12.094;2022-08-19T10:13:26;26.07;;;23.67;;
18286;SDS011;9269;50.838;12.094;2022-08-19T10:16:01;25.40;;;23.00;;
18286;SDS011;9269;50.838;12.094;2022-08-19T10:18:31;23.20;;;21.10;;
18286;SDS011;9269;50.838;12.094;2022-08-19T10:21:03;23.13;;;20.63;;
18286;SDS011;9269;50.838;12.094;2022-08-19T10:23:38;20.90;;;18.90;;
18286;SDS011;9269;50.838;12.094;2022-08-19T10:26:11;19.83;;;17.83;;
18286;SDS011;9269;50.838;12.094;2022-08-19T10:28:46;18.93;;;17.13;;
18286;SDS011;9269;50.838;12.094;2022-08-19T10:31:15;20.10;;;18.00;;
18286;SDS011;9269;50.838;12.094;2022-08-19T10:34:06;18.43;;;16.53;;
18286;SDS011;9269;50.838;12.094;2022-08-19T10:36:37;16.67;;;14.97;;
18286;SDS011;9269;50.838;12.094;2022-08-19T10:39:22;15.93;;;14.40;;
18286;SDS011;9269;50.838;12.094;2022-08-19T10:41:56;15.47;;;14.07;;
18286;SDS011;9269;50.838;12.094;2022-08-19T10:44:26;15.73;;;14.13;;
18286;SDS011;9269;50.838;12.094;2022-08-19T10:46:58;14.80;;;13.40;;
18286;SDS011;9269;50.838;12.094;2022-08-19T10:49:27;14.30;;;12.80;;
18286;SDS011;9269;50.838;12.094;2022-08-19T10:51:55;14.77;;;13.47;;
18286;SDS011;9269;50.838;12.094;2022-08-19T10:54:45;12.90;;;11.83;;
18286;SDS011;9269;50.838;12.094;2022-08-19T10:57:34;13.50;;;12.30;;
18286;SDS011;9269;50.838;12.094;2022-08-19T11:00:24;13.53;;;12.23;;
18286;SDS011;9269;50.838;12.094;2022-08-19T11:02:53;13.57;;;12.10;;
18286;SDS011;9269;50.838;12.094;2022-08-19T11:05:22;14.00;;;12.33;;
18286;SDS011;9269;50.838;12.094;2022-08-19T11:07:50;14.23;;;11.70;;
18286;SDS011;9269;50.838;12.094;2022-08-19T11:10:19;13.37;;;12.07;;
18286;SDS011;9269;50.838;12.094;2022-08-19T11:12:48;13.43;;;10.97;;
18286;SDS011;9269;50.838;12.094;2022-08-19T11:15:19;10.83;;;9.83;;
18286;SDS011;9269;50.838;12.094;2022-08-19T11:17:50;11.90;;;10.80;;
18286;SDS011;9269;50.838;12.094;2022-08-19T11:20:21;11.37;;;10.23;;
18286;SDS011;9269;50.838;12.094;2022-08-19T11:22:51;10.93;;;10.00;;
18286;SDS011;9269;50.838;12.094;2022-08-19T11:25:20;11.30;;;10.00;;
18286;SDS011;9269;50.838;12.094;2022-08-19T11:27:48;9.20;;;8.43;;
18286;SDS011;9269;50.838;12.094;2022-08-19T11:30:19;9.27;;;8.47;;
18286;SDS011;9269;50.838;12.094;2022-08-19T11:32:47;9.77;;;8.33;;
18286;SDS011;9269;50.838;12.094;2022-08-19T11:35:17;8.17;;;7.43;;
18286;SDS011;9269;50.838;12.094;2022-08-19T11:37:46;6.97;;;6.37;;
18286;SDS011;9269;50.838;12.094;2022-08-19T11:40:14;7.00;;;6.40;;
18286;SDS011;9269;50.838;12.094;2022-08-19T11:42:43;7.60;;;7.00;;
18286;SDS011;9269;50.838;12.094;2022-08-19T11:45:25;7.57;;;6.97;;
18286;SDS011;9269;50.838;12.094;2022-08-19T11:47:57;7.73;;;7.03;;
18286;SDS011;9269;50.838;12.094;2022-08-19T11:50:26;7.63;;;6.87;;
18286;SDS011;9269;50.838;12.094;2022-08-19T11:52:56;8.20;;;7.40;;
18286;SDS011;9269;50.838;12.094;2022-08-19T11:55:24;6.83;;;6.20;;
18286;SDS011;9269;50.838;12.094;2022-08-19T11:57:53;6.83;;;6.23;;
18286;SDS011;9269;50.838;12.094;2022-08-19T12:00:22;8.40;;;7.70;;
18286;SDS011;9269;50.838;12.094;2022-08-19T12:02:51;7.23;;;6.63;;
18286;SDS011;9269;50.838;12.094;2022-08-19T12:05:23;7.33;;;6.73;;
18286;SDS011;9269;50.838;12.094;2022-08-19T12:07:51;7.30;;;6.70;;
18286;SDS011;9269;50.838;12.094;2022-08-19T12:10:22;8.00;;;7.40;;
18286;SDS011;9269;50.838;12.094;2022-08-19T12:12:52;7.33;;;6.80;;
18286;SDS011;9269;50.838;12.094;2022-08-19T12:15:25;8.70;;;7.37;;
18286;SDS011;9269;50.838;12.094;2022-08-19T12:18:03;7.47;;;6.97;;
18286;SDS011;9269;50.838;12.094;2022-08-19T12:20:35;8.07;;;7.40;;
18286;SDS011;9269;50.838;12.094;2022-08-19T12:23:06;8.27;;;7.60;;
18286;SDS011;9269;50.838;12.094;2022-08-19T12:25:37;7.60;;;7.00;;
18286;SDS011;9269;50.838;12.094;2022-08-19T12:28:18;7.80;;;7.10;;
18286;SDS011;9269;50.838;12.094;2022-08-19T12:30:48;8.40;;;7.70;;
18286;SDS011;9269;50.838;12.094;2022-08-19T12:33:18;9.00;;;8.20;;
18286;SDS011;9269;50.838;12.094;2022-08-19T12:35:52;8.63;;;7.93;;
18286;SDS011;9269;50.838;12.094;2022-08-19T12:38:21;7.50;;;6.90;;
18286;SDS011;9269;50.838;12.094;2022-08-19T12:40:51;7.40;;;6.80;;
18286;SDS011;9269;50.838;12.094;2022-08-19T12:43:25;7.90;;;7.30;;
18286;SDS011;9269;50.838;12.094;2022-08-19T12:45:54;6.83;;;6.33;;
18286;SDS011;9269;50.838;12.094;2022-08-19T12:48:23;7.00;;;6.40;;
18286;SDS011;9269;50.838;12.094;2022-08-19T12:51:05;7.90;;;7.20;;
18286;SDS011;9269;50.838;12.094;2022-08-19T12:53:34;7.50;;;6.80;;
18286;SDS011;9269;50.838;12.094;2022-08-19T12:56:05;7.57;;;6.97;;
18286;SDS011;9269;50.838;12.094;2022-08-19T12:58:38;6.80;;;6.30;;
18286;SDS011;9269;50.838;12.094;2022-08-19T13:01:15;7.50;;;6.80;;
18286;SDS011;9269;50.838;12.094;2022-08-19T13:03:49;7.47;;;6.80;;
18286;SDS011;9269;50.838;12.094;2022-08-19T13:06:22;8.13;;;7.43;;
18286;SDS011;9269;50.838;12.094;2022-08-19T13:08:52;8.20;;;7.47;;
18286;SDS011;9269;50.838;12.094;2022-08-19T13:11:25;7.40;;;6.70;;
18286;SDS011;9269;50.838;12.094;2022-08-19T13:13:55;7.83;;;7.20;;
18286;SDS011;9269;50.838;12.094;2022-08-19T13:16:24;8.47;;;7.67;;
18286;SDS011;9269;50.838;12.094;2022-08-19T13:18:54;7.40;;;6.80;;
18286;SDS011;9269;50.838;12.094;2022-08-19T13:21:26;7.60;;;7.00;;
18286;SDS011;9269;50.838;12.094;2022-08-19T13:23:56;6.53;;;6.00;;
18286;SDS011;9269;50.838;12.094;2022-08-19T13:26:25;6.83;;;6.23;;
18286;SDS011;9269;50.838;12.094;2022-08-19T13:28:53;6.87;;;6.33;;
18286;SDS011;9269;50.838;12.094;2022-08-19T13:31:39;8.17;;;7.47;;
18286;SDS011;9269;50.838;12.094;2022-08-19T13:34:30;7.13;;;6.53;;
18286;SDS011;9269;50.838;12.094;2022-08-19T13:37:02;7.37;;;6.77;;
18286;SDS011;9269;50.838;12.094;2022-08-19T13:39:31;7.53;;;6.83;;
18286;SDS011;9269;50.838;12.094;2022-08-19T13:42:01;7.83;;;7.13;;
18286;SDS011;9269;50.838;12.094;2022-08-19T13:44:31;7.90;;;7.30;;
18286;SDS011;9269;50.838;12.094;2022-08-19T13:47:00;7.93;;;7.23;;
18286;SDS011;9269;50.838;12.094;2022-08-19T13:49:33;8.10;;;7.40;;
18286;SDS011;9269;50.838;12.094;2022-08-19T13:52:04;7.47;;;6.67;;
18286;SDS011;9269;50.838;12.094;2022-08-19T14:23:29;7.00;;;6.40;;
18286;SDS011;9269;50.838;12.094;2022-08-19T14:26:04;8.40;;;7.57;;
18286;SDS011;9269;50.838;12.094;2022-08-19T14:28:34;7.30;;;6.60;;
18286;SDS011;9269;50.838;12.094;2022-08-19T14:31:03;7.43;;;6.10;;
18286;SDS011;9269;50.838;12.094;2022-08-19T14:33:34;7.17;;;6.47;;
18286;SDS011;9269;50.838;12.094;2022-08-19T14:36:03;7.47;;;6.77;;
18286;SDS011;9269;50.838;12.094;2022-08-19T14:38:34;7.97;;;7.23;;
18286;SDS011;9269;50.838;12.094;2022-08-19T14:41:07;8.40;;;7.70;;
18286;SDS011;9269;50.838;12.094;2022-08-19T14:43:37;8.37;;;7.70;;
18286;SDS011;9269;50.838;12.094;2022-08-19T14:46:06;7.10;;;6.60;;
18286;SDS011;9269;50.838;12.094;2022-08-19T14:48:37;8.27;;;7.47;;
18286;SDS011;9269;50.838;12.094;2022-08-19T14:51:07;8.77;;;8.07;;
18286;SDS011;9269;50.838;12.094;2022-08-19T14:53:37;7.90;;;7.20;;
18286;SDS011;9269;50.838;12.094;2022-08-19T14:56:07;7.60;;;7.00;;
18286;SDS011;9269;50.838;12.094;2022-08-19T14:58:38;7.70;;;7.00;;
18286;SDS011;9269;50.838;12.094;2022-08-19T15:01:09;8.77;;;7.97;;
18286;SDS011;9269;50.838;12.094;2022-08-19T15:03:38;7.70;;;7.10;;
18286;SDS011;9269;50.838;12.094;2022-08-19T15:06:08;11.10;;;8.47;;
18286;SDS011;9269;50.838;12.094;2022-08-19T15:08:40;10.27;;;8.00;;
18286;SDS011;9269;50.838;12.094;2022-08-19T15:11:11;7.60;;;7.00;;
18286;SDS011;9269;50.838;12.094;2022-08-19T15:13:41;7.97;;;7.27;;
18286;SDS011;9269;50.838;12.094;2022-08-19T15:16:10;8.13;;;7.50;;
18286;SDS011;9269;50.838;12.094;2022-08-19T15:18:44;6.87;;;6.27;;
18286;SDS011;9269;50.838;12.094;2022-08-19T15:21:14;6.93;;;6.43;;
18286;SDS011;9269;50.838;12.094;2022-08-19T15:23:54;6.50;;;5.90;;
18286;SDS011;9269;50.838;12.094;2022-08-19T15:26:24;7.40;;;6.70;;